sensor_id;sensor_type;location;lat;lon;timestamp;P1;durP1;ratioP1;P2;durP2;ratioP2
54627;SDS011;40525;55.926;21.066;2023-04-28T16:18:27;3.40;;;0.90;;
54627;SDS011;40525;55.926;21.066;2023-04-28T16:21:21;3.80;;;1.40;;
54627;SDS011;40525;55.926;21.066;2023-04-28T16:23:56;4.90;;;1.60;;
54627;SDS011;40525;55.926;21.066;2023-04-28T16:26:45;4.30;;;1.20;;
54627;SDS011;40525;55.926;21.066;2023-04-28T16:29:18;2.40;;;1.20;;
54627;SDS011;40525;55.926;21.066;2023-04-28T16:32:07;4.70;;;1.60;;
54627;SDS011;40525;55.926;21.066;2023-04-28T16:35:01;6.10;;;1.50;;
54627;SDS011;40525;55.926;21.066;2023-04-28T16:37:59;4.40;;;1.90;;
54627;SDS011;40525;55.926;21.066;2023-04-28T16:40:34;2.80;;;1.40;;
54627;SDS011;40525;55.926;21.066;2023-04-28T16:43:22;4.50;;;1.40;;
54627;SDS011;40525;55.926;21.066;2023-04-28T16:45:55;5.00;;;1.50;;
54627;SDS011;40525;55.926;21.066;2023-04-28T16:48:43;7.00;;;1.70;;
54627;SDS011;40525;55.926;21.066;2023-04-28T16:51:16;3.10;;;1.40;;
54627;SDS011;40525;55.926;21.066;2023-04-28T16:54:04;3.90;;;1.90;;
54627;SDS011;40525;55.926;21.066;2023-04-28T16:56:39;4.80;;;1.20;;
54627;SDS011;40525;55.926;21.066;2023-04-28T16:59:27;3.90;;;1.20;;
54627;SDS011;40525;55.926;21.066;2023-04-28T17:02:06;4.10;;;1.30;;
54627;SDS011;40525;55.926;21.066;2023-04-28T17:04:57;6.50;;;1.20;;
54627;SDS011;40525;55.926;21.066;2023-04-28T17:07:30;3.10;;;1.10;;
54627;SDS011;40525;55.926;21.066;2023-04-28T17:10:18;4.60;;;1.60;;
54627;SDS011;40525;55.926;21.066;2023-04-28T17:12:51;5.50;;;1.80;;
54627;SDS011;40525;55.926;21.066;2023-04-28T17:15:39;2.90;;;1.20;;
54627;SDS011;40525;55.926;21.066;2023-04-28T17:18:33;2.60;;;0.90;;
54627;SDS011;40525;55.926;21.066;2023-04-28T17:21:28;3.40;;;1.30;;
54627;SDS011;40525;55.926;21.066;2023-04-28T17:24:02;4.70;;;1.20;;
54627;SDS011;40525;55.926;21.066;2023-04-28T17:26:49;6.00;;;1.60;;
54627;SDS011;40525;55.926;21.066;2023-04-28T17:29:24;3.00;;;1.00;;
54627;SDS011;40525;55.926;21.066;2023-04-28T17:32:13;3.20;;;1.00;;
54627;SDS011;40525;55.926;21.066;2023-04-28T17:34:46;5.50;;;1.20;;
54627;SDS011;40525;55.926;21.066;2023-04-28T17:37:34;2.80;;;1.10;;
54627;SDS011;40525;55.926;21.066;2023-04-28T17:40:09;4.50;;;1.10;;
54627;SDS011;40525;55.926;21.066;2023-04-28T17:42:57;3.60;;;1.50;;
54627;SDS011;40525;55.926;21.066;2023-04-28T17:45:32;3.90;;;1.20;;
54627;SDS011;40525;55.926;21.066;2023-04-28T17:48:19;4.10;;;1.00;;
54627;SDS011;40525;55.926;21.066;2023-04-28T17:50:53;2.30;;;1.10;;
54627;SDS011;40525;55.926;21.066;2023-04-28T17:53:41;3.90;;;1.40;;
54627;SDS011;40525;55.926;21.066;2023-04-28T17:56:16;3.00;;;1.10;;
54627;SDS011;40525;55.926;21.066;2023-04-28T17:59:03;3.00;;;1.50;;
54627;SDS011;40525;55.926;21.066;2023-04-28T18:01:37;2.30;;;0.90;;
54627;SDS011;40525;55.926;21.066;2023-04-28T18:04:24;4.00;;;0.90;;
54627;SDS011;40525;55.926;21.066;2023-04-28T18:07:00;1.70;;;1.00;;
54627;SDS011;40525;55.926;21.066;2023-04-28T18:09:48;3.10;;;1.00;;
54627;SDS011;40525;55.926;21.066;2023-04-28T18:12:22;3.30;;;1.40;;
54627;SDS011;40525;55.926;21.066;2023-04-28T18:15:10;5.60;;;1.30;;
54627;SDS011;40525;55.926;21.066;2023-04-28T18:17:44;3.90;;;1.30;;
54627;SDS011;40525;55.926;21.066;2023-04-28T18:20:31;4.60;;;1.80;;
54627;SDS011;40525;55.926;21.066;2023-04-28T18:23:06;4.20;;;1.60;;
54627;SDS011;40525;55.926;21.066;2023-04-28T18:25:53;4.30;;;1.70;;
54627;SDS011;40525;55.926;21.066;2023-04-28T18:28:27;3.00;;;1.60;;
54627;SDS011;40525;55.926;21.066;2023-04-28T18:31:13;4.40;;;1.50;;
54627;SDS011;40525;55.926;21.066;2023-04-28T18:33:47;4.40;;;1.90;;
54627;SDS011;40525;55.926;21.066;2023-04-28T18:36:34;5.10;;;1.40;;
54627;SDS011;40525;55.926;21.066;2023-04-28T18:39:09;4.50;;;1.40;;
54627;SDS011;40525;55.926;21.066;2023-04-28T18:41:57;4.20;;;1.80;;
54627;SDS011;40525;55.926;21.066;2023-04-28T18:44:31;2.90;;;1.30;;
54627;SDS011;40525;55.926;21.066;2023-04-28T18:47:18;4.30;;;1.60;;
54627;SDS011;40525;55.926;21.066;2023-04-28T18:49:53;5.60;;;2.40;;
54627;SDS011;40525;55.926;21.066;2023-04-28T18:52:41;4.60;;;2.70;;
54627;SDS011;40525;55.926;21.066;2023-04-28T18:55:15;5.30;;;2.60;;
54627;SDS011;40525;55.926;21.066;2023-04-28T18:58:02;8.20;;;2.90;;
54627;SDS011;40525;55.926;21.066;2023-04-28T19:00:37;4.10;;;2.50;;
54627;SDS011;40525;55.926;21.066;2023-04-28T19:03:24;4.10;;;1.90;;
54627;SDS011;40525;55.926;21.066;2023-04-28T19:05:59;2.90;;;1.50;;
54627;SDS011;40525;55.926;21.066;2023-04-28T19:08:46;3.80;;;1.80;;
54627;SDS011;40525;55.926;21.066;2023-04-28T19:11:24;6.10;;;2.00;;
54627;SDS011;40525;55.926;21.066;2023-04-28T19:14:12;5.80;;;2.00;;
54627;SDS011;40525;55.926;21.066;2023-04-28T19:16:47;7.20;;;2.60;;
54627;SDS011;40525;55.926;21.066;2023-04-28T19:19:40;5.80;;;2.50;;
54627;SDS011;40525;55.926;21.066;2023-04-28T19:25:22;10.10;;;3.80;;
54627;SDS011;40525;55.926;21.066;2023-04-28T19:27:57;9.70;;;4.40;;
54627;SDS011;40525;55.926;21.066;2023-04-28T19:30:44;10.80;;;5.10;;
54627;SDS011;40525;55.926;21.066;2023-04-28T19:33:20;13.70;;;5.70;;
54627;SDS011;40525;55.926;21.066;2023-04-28T19:36:10;11.50;;;5.40;;
54627;SDS011;40525;55.926;21.066;2023-04-28T19:38:44;11.00;;;5.00;;
54627;SDS011;40525;55.926;21.066;2023-04-28T19:41:31;10.40;;;4.80;;
54627;SDS011;40525;55.926;21.066;2023-04-28T19:44:08;16.20;;;5.40;;
54627;SDS011;40525;55.926;21.066;2023-04-28T19:46:55;9.20;;;4.10;;
54627;SDS011;40525;55.926;21.066;2023-04-28T19:49:29;13.10;;;5.00;;
54627;SDS011;40525;55.926;21.066;2023-04-28T19:52:19;9.40;;;4.70;;
54627;SDS011;40525;55.926;21.066;2023-04-28T19:54:54;9.50;;;4.40;;
54627;SDS011;40525;55.926;21.066;2023-04-28T19:57:43;10.60;;;3.70;;
54627;SDS011;40525;55.926;21.066;2023-04-28T20:00:17;8.90;;;3.50;;
54627;SDS011;40525;55.926;21.066;2023-04-28T20:03:05;7.50;;;3.30;;
54627;SDS011;40525;55.926;21.066;2023-04-28T20:05:41;10.80;;;3.30;;
54627;SDS011;40525;55.926;21.066;2023-04-28T20:08:28;9.70;;;4.30;;
54627;SDS011;40525;55.926;21.066;2023-04-28T20:11:02;6.80;;;3.50;;
54627;SDS011;40525;55.926;21.066;2023-04-28T20:13:49;11.20;;;4.10;;
54627;SDS011;40525;55.926;21.066;2023-04-28T20:16:24;11.90;;;4.90;;
54627;SDS011;40525;55.926;21.066;2023-04-28T20:19:11;14.80;;;5.40;;
54627;SDS011;40525;55.926;21.066;2023-04-28T20:21:46;14.70;;;5.30;;
54627;SDS011;40525;55.926;21.066;2023-04-28T20:24:33;12.00;;;5.70;;
54627;SDS011;40525;55.926;21.066;2023-04-28T20:27:07;13.50;;;5.10;;
54627;SDS011;40525;55.926;21.066;2023-04-28T20:29:55;12.20;;;5.20;;
54627;SDS011;40525;55.926;21.066;2023-04-28T20:32:29;13.10;;;6.00;;
54627;SDS011;40525;55.926;21.066;2023-04-28T20:35:17;15.20;;;6.00;;
54627;SDS011;40525;55.926;21.066;2023-04-28T20:37:52;14.30;;;5.60;;
54627;SDS011;40525;55.926;21.066;2023-04-28T20:40:39;12.70;;;5.80;;
54627;SDS011;40525;55.926;21.066;2023-04-28T20:43:13;18.80;;;6.80;;
54627;SDS011;40525;55.926;21.066;2023-04-28T20:46:00;16.40;;;6.40;;
54627;SDS011;40525;55.926;21.066;2023-04-28T20:48:35;13.60;;;6.10;;
54627;SDS011;40525;55.926;21.066;2023-04-28T20:51:22;16.20;;;6.20;;
54627;SDS011;40525;55.926;21.066;2023-04-28T20:53:56;13.20;;;6.00;;
54627;SDS011;40525;55.926;21.066;2023-04-28T20:56:43;14.90;;;7.10;;
54627;SDS011;40525;55.926;21.066;2023-04-28T20:59:17;18.40;;;7.10;;
54627;SDS011;40525;55.926;21.066;2023-04-28T21:02:03;12.20;;;6.10;;
54627;SDS011;40525;55.926;21.066;2023-04-28T21:04:37;13.70;;;5.80;;
54627;SDS011;40525;55.926;21.066;2023-04-28T21:07:25;14.70;;;6.40;;
54627;SDS011;40525;55.926;21.066;2023-04-28T21:09:59;17.40;;;7.00;;
54627;SDS011;40525;55.926;21.066;2023-04-28T21:12:46;15.60;;;6.70;;
54627;SDS011;40525;55.926;21.066;2023-04-28T21:15:20;15.90;;;7.00;;
54627;SDS011;40525;55.926;21.066;2023-04-28T21:18:08;23.40;;;6.90;;
54627;SDS011;40525;55.926;21.066;2023-04-28T21:20:43;16.40;;;8.00;;
54627;SDS011;40525;55.926;21.066;2023-04-28T21:23:30;17.80;;;7.70;;
54627;SDS011;40525;55.926;21.066;2023-04-28T21:26:04;16.50;;;7.60;;
54627;SDS011;40525;55.926;21.066;2023-04-28T21:28:51;16.30;;;7.40;;
54627;SDS011;40525;55.926;21.066;2023-04-28T21:31:26;18.30;;;8.00;;
54627;SDS011;40525;55.926;21.066;2023-04-28T21:34:13;15.60;;;6.70;;
54627;SDS011;40525;55.926;21.066;2023-04-28T21:36:47;17.90;;;7.60;;
54627;SDS011;40525;55.926;21.066;2023-04-28T21:39:35;16.00;;;7.60;;
54627;SDS011;40525;55.926;21.066;2023-04-28T21:42:09;18.80;;;7.80;;
54627;SDS011;40525;55.926;21.066;2023-04-28T21:44:55;15.00;;;6.90;;
54627;SDS011;40525;55.926;21.066;2023-04-28T21:47:30;19.30;;;8.30;;
54627;SDS011;40525;55.926;21.066;2023-04-28T21:50:20;18.40;;;8.80;;
54627;SDS011;40525;55.926;21.066;2023-04-28T21:52:54;19.70;;;8.60;;
54627;SDS011;40525;55.926;21.066;2023-04-28T21:55:42;15.70;;;7.70;;
54627;SDS011;40525;55.926;21.066;2023-04-28T21:58:17;21.30;;;8.10;;
54627;SDS011;40525;55.926;21.066;2023-04-28T22:01:04;17.50;;;7.80;;
54627;SDS011;40525;55.926;21.066;2023-04-28T22:03:39;24.40;;;9.00;;
54627;SDS011;40525;55.926;21.066;2023-04-28T22:06:27;19.20;;;8.90;;
54627;SDS011;40525;55.926;21.066;2023-04-28T22:09:02;20.30;;;7.80;;
54627;SDS011;40525;55.926;21.066;2023-04-28T22:11:51;18.50;;;8.40;;
54627;SDS011;40525;55.926;21.066;2023-04-28T22:14:25;22.70;;;8.40;;
54627;SDS011;40525;55.926;21.066;2023-04-28T22:17:15;18.30;;;7.40;;
54627;SDS011;40525;55.926;21.066;2023-04-28T22:19:49;18.70;;;8.30;;
54627;SDS011;40525;55.926;21.066;2023-04-28T22:22:37;19.50;;;7.20;;
54627;SDS011;40525;55.926;21.066;2023-04-28T22:25:10;13.90;;;7.10;;
54627;SDS011;40525;55.926;21.066;2023-04-28T22:27:57;16.60;;;6.70;;
54627;SDS011;40525;55.926;21.066;2023-04-28T22:30:30;14.30;;;7.70;;
54627;SDS011;40525;55.926;21.066;2023-04-28T22:33:17;14.80;;;7.20;;
54627;SDS011;40525;55.926;21.066;2023-04-28T22:35:51;19.70;;;7.20;;
54627;SDS011;40525;55.926;21.066;2023-04-28T22:38:38;17.90;;;6.80;;
54627;SDS011;40525;55.926;21.066;2023-04-28T22:41:12;13.60;;;6.00;;
54627;SDS011;40525;55.926;21.066;2023-04-28T22:43:59;14.20;;;6.20;;
54627;SDS011;40525;55.926;21.066;2023-04-28T22:46:32;13.50;;;5.60;;
54627;SDS011;40525;55.926;21.066;2023-04-28T22:49:20;12.50;;;5.90;;
54627;SDS011;40525;55.926;21.066;2023-04-28T22:51:57;13.00;;;5.70;;
54627;SDS011;40525;55.926;21.066;2023-04-28T22:54:45;14.80;;;6.40;;
54627;SDS011;40525;55.926;21.066;2023-04-28T22:57:19;10.80;;;5.20;;
54627;SDS011;40525;55.926;21.066;2023-04-28T23:00:07;15.00;;;5.90;;
54627;SDS011;40525;55.926;21.066;2023-04-28T23:02:41;13.80;;;6.20;;
54627;SDS011;40525;55.926;21.066;2023-04-28T23:05:30;13.10;;;6.00;;
54627;SDS011;40525;55.926;21.066;2023-04-28T23:08:04;10.10;;;5.50;;
54627;SDS011;40525;55.926;21.066;2023-04-28T23:10:53;11.90;;;5.80;;
54627;SDS011;40525;55.926;21.066;2023-04-28T23:13:28;16.80;;;6.10;;
54627;SDS011;40525;55.926;21.066;2023-04-28T23:16:15;16.00;;;6.00;;
54627;SDS011;40525;55.926;21.066;2023-04-28T23:19:02;12.30;;;5.90;;
54627;SDS011;40525;55.926;21.066;2023-04-28T23:21:59;14.00;;;5.40;;
54627;SDS011;40525;55.926;21.066;2023-04-28T23:24:33;12.90;;;5.60;;
54627;SDS011;40525;55.926;21.066;2023-04-28T23:27:22;10.80;;;5.50;;
54627;SDS011;40525;55.926;21.066;2023-04-28T23:29:56;13.70;;;5.40;;
54627;SDS011;40525;55.926;21.066;2023-04-28T23:32:43;11.40;;;6.00;;
54627;SDS011;40525;55.926;21.066;2023-04-28T23:35:17;13.10;;;5.90;;
54627;SDS011;40525;55.926;21.066;2023-04-28T23:38:05;15.50;;;6.10;;
54627;SDS011;40525;55.926;21.066;2023-04-28T23:40:38;17.70;;;6.40;;
54627;SDS011;40525;55.926;21.066;2023-04-28T23:43:27;16.80;;;7.00;;
54627;SDS011;40525;55.926;21.066;2023-04-28T23:46:00;14.50;;;6.90;;
54627;SDS011;40525;55.926;21.066;2023-04-28T23:48:48;14.10;;;5.70;;
54627;SDS011;40525;55.926;21.066;2023-04-28T23:51:22;18.00;;;6.80;;
54627;SDS011;40525;55.926;21.066;2023-04-28T23:54:11;12.50;;;6.70;;
54627;SDS011;40525;55.926;21.066;2023-04-28T23:56:46;19.90;;;7.90;;
54627;SDS011;40525;55.926;21.066;2023-04-28T23:59:33;17.60;;;7.00;;
